Time;durP1;ratioP1;P1;durP2;ratioP2;P2;SDS_P1;SDS_P2;PMS_P1;PMS_P2;Temp;Humidity;BMP_temperature;BMP_pressure;BME280_temperature;BME280_humidity;BME280_pressure;Samples;Min_cycle;Max_cycle;Signal;HPM_P1;HPM_P2
2024/05/02 00:00:11;;;;;;;4.53;3.58;;;;;;;13.29;48.17;100500.22;5269579;26;20001;-75
2024/05/02 00:02:36;;;;;;;5.30;4.32;;;;;;;13.29;48.31;100495.84;5262243;26;20775;-75
2024/05/02 00:05:02;;;;;;;9.20;4.45;;;;;;;13.28;48.28;100495.94;5266904;26;20445;-75
2024/05/02 00:07:30;;;;;;;7.07;4.82;;;;;;;13.02;48.78;100493.00;5290506;26;20506;-74
2024/05/02 00:09:55;;;;;;;9.10;5.18;;;;;;;13.10;48.60;100498.66;5342323;26;20754;-75
2024/05/02 00:12:21;;;;;;;6.65;4.63;;;;;;;12.99;48.51;100493.19;5291475;26;20032;-75
2024/05/02 00:14:47;;;;;;;7.25;4.65;;;;;;;12.98;48.22;100496.75;5320664;26;20005;-76
2024/05/02 00:17:12;;;;;;;5.40;3.40;;;;;;;13.09;48.11;100498.72;5312180;26;20023;-75
2024/05/02 00:19:38;;;;;;;13.68;3.97;;;;;;;13.16;48.21;100501.84;5346163;26;20073;-75
2024/05/02 00:22:03;;;;;;;11.50;4.40;;;;;;;13.19;48.20;100496.47;5288377;26;20009;-74
2024/05/02 00:24:29;;;;;;;10.95;4.30;;;;;;;13.15;48.21;100497.56;5289645;26;20040;-75
2024/05/02 00:26:54;;;;;;;8.63;3.90;;;;;;;12.99;48.19;100495.78;5294623;26;20017;-75
2024/05/02 00:29:20;;;;;;;5.45;4.38;;;;;;;13.04;47.99;100495.53;5274165;26;20027;-75
2024/05/02 00:31:45;;;;;;;6.85;3.67;;;;;;;12.92;48.32;100493.63;5288345;26;20595;-75
2024/05/02 00:34:10;;;;;;;5.50;3.65;;;;;;;12.82;48.63;100491.47;5292506;26;20558;-75
2024/05/02 00:36:36;;;;;;;9.98;4.40;;;;;;;12.85;48.34;100490.50;5288621;26;20560;-75
2024/05/02 00:39:01;;;;;;;9.00;3.63;;;;;;;12.80;48.07;100487.25;5268053;26;20013;-75
2024/05/02 00:41:28;;;;;;;10.90;3.80;;;;;;;12.75;48.55;100491.91;5295593;26;20505;-75
2024/05/02 00:43:54;;;;;;;7.43;4.20;;;;;;;12.85;48.41;100480.00;5262578;26;20382;-75
2024/05/02 00:46:20;;;;;;;8.13;3.75;;;;;;;12.75;48.60;100486.66;5260332;26;20005;-75
2024/05/02 00:48:45;;;;;;;13.57;4.72;;;;;;;12.76;48.29;100480.47;5311839;26;20025;-75
2024/05/02 00:51:11;;;;;;;5.97;3.72;;;;;;;12.65;48.60;100484.53;5278157;26;20012;-75
2024/05/02 00:53:37;;;;;;;6.70;3.63;;;;;;;12.65;48.47;100478.44;5291677;26;20023;-74
2024/05/02 00:56:06;;;;;;;6.18;4.03;;;;;;;12.55;48.71;100472.84;5289086;26;20452;-75
2024/05/02 00:58:32;;;;;;;8.05;4.18;;;;;;;12.47;48.67;100475.06;5287494;26;20012;-76
2024/05/02 01:00:57;;;;;;;6.30;3.72;;;;;;;12.47;48.59;100485.53;5287031;26;20020;-75
2024/05/02 01:03:22;;;;;;;4.60;3.75;;;;;;;12.41;48.68;100472.75;5318530;26;20009;-75
2024/05/02 01:05:48;;;;;;;4.95;3.97;;;;;;;12.36;48.92;100482.66;5289180;26;20022;-75
2024/05/02 01:08:14;;;;;;;5.63;4.18;;;;;;;12.40;48.89;100465.81;5289262;26;20009;-75
2024/05/02 01:10:41;;;;;;;6.30;3.58;;;;;;;12.38;48.69;100468.53;5290265;26;20027;-75
2024/05/02 01:13:07;;;;;;;8.02;3.55;;;;;;;12.32;49.00;100462.78;5296905;26;20026;-74
2024/05/02 01:15:33;;;;;;;8.02;4.40;;;;;;;12.16;49.08;100458.34;5287328;26;20357;-75
2024/05/02 01:17:59;;;;;;;5.88;2.95;;;;;;;12.23;49.01;100459.72;5292532;26;20014;-75
2024/05/02 01:20:24;;;;;;;5.22;3.90;;;;;;;12.11;49.15;100462.13;5289050;26;20025;-74
2024/05/02 01:22:50;;;;;;;7.03;4.05;;;;;;;12.19;49.27;100459.97;5302483;26;20009;-75
2024/05/02 01:25:16;;;;;;;7.60;4.30;;;;;;;12.06;49.27;100455.34;5280682;26;20725;-75
2024/05/02 01:27:41;;;;;;;4.78;3.83;;;;;;;12.04;49.20;100456.38;5291159;26;20005;-75
2024/05/02 01:30:07;;;;;;;8.82;3.58;;;;;;;12.03;49.37;100454.69;5283482;26;20071;-75
2024/05/02 01:32:33;;;;;;;7.93;4.05;;;;;;;12.13;49.19;100460.28;5297253;26;20013;-75
2024/05/02 01:34:58;;;;;;;5.45;3.35;;;;;;;11.95;49.51;100455.09;5288196;26;20014;-75
2024/05/02 01:37:24;;;;;;;5.38;4.20;;;;;;;11.85;49.64;100461.75;5294327;26;20021;-75
2024/05/02 01:39:49;;;;;;;6.13;3.78;;;;;;;11.92;49.36;100450.00;5296962;26;20470;-75
2024/05/02 01:42:15;;;;;;;5.10;3.88;;;;;;;12.02;49.34;100456.47;5315994;26;21895;-75
2024/05/02 01:44:41;;;;;;;8.38;3.97;;;;;;;11.85;49.78;100444.25;5290783;26;20024;-75
2024/05/02 01:47:06;;;;;;;8.13;3.35;;;;;;;11.86;49.43;100448.53;5290268;26;20008;-75
2024/05/02 01:49:32;;;;;;;6.28;3.70;;;;;;;11.76;49.70;100442.09;5289485;26;20522;-75
2024/05/02 01:51:58;;;;;;;5.50;3.70;;;;;;;11.66;49.71;100448.72;5280104;26;20422;-75
2024/05/02 01:54:23;;;;;;;11.20;4.70;;;;;;;11.57;50.58;100441.31;5285354;26;20465;-75
2024/05/02 01:56:49;;;;;;;7.68;3.35;;;;;;;11.71;50.06;100448.47;5290448;26;20087;-74
2024/05/02 01:59:14;;;;;;;6.72;4.95;;;;;;;11.76;49.92;100451.72;5285004;26;20464;-75
2024/05/02 02:01:40;;;;;;;7.25;3.70;;;;;;;11.66;50.00;100451.31;5346329;26;20411;-75
2024/05/02 02:04:06;;;;;;;8.52;4.68;;;;;;;11.65;50.15;100449.66;5298354;26;20054;-75
2024/05/02 02:06:32;;;;;;;11.77;3.75;;;;;;;11.70;49.84;100447.63;5290362;26;20557;-75
2024/05/02 02:08:58;;;;;;;5.22;3.80;;;;;;;11.63;50.10;100451.50;5339652;26;20009;-75
2024/05/02 02:11:24;;;;;;;6.55;3.90;;;;;;;11.58;50.23;100443.03;5304749;26;22522;-75
2024/05/02 02:13:49;;;;;;;8.90;4.05;;;;;;;11.55;50.21;100430.09;5290129;26;20503;-75
2024/05/02 02:16:15;;;;;;;7.97;4.32;;;;;;;11.56;50.47;100429.19;5286197;26;20292;-74
2024/05/02 02:18:40;;;;;;;7.82;3.85;;;;;;;11.53;50.36;100432.81;5299592;26;20009;-74
2024/05/02 02:21:06;;;;;;;9.43;3.72;;;;;;;11.42;50.62;100427.28;5342173;26;20382;-74
2024/05/02 02:23:31;;;;;;;6.55;3.90;;;;;;;11.56;50.22;100424.78;5266895;26;20005;-74
2024/05/02 02:25:57;;;;;;;7.60;4.43;;;;;;;11.42;50.57;100422.88;5289002;26;20017;-74
2024/05/02 02:28:22;;;;;;;8.45;3.97;;;;;;;11.30;50.64;100418.25;5286704;26;20005;-74
2024/05/02 02:30:48;;;;;;;7.35;4.60;;;;;;;11.30;50.86;100418.25;5285143;26;20024;-75
2024/05/02 02:33:13;;;;;;;7.78;4.95;;;;;;;11.22;51.16;100415.19;5293020;26;20082;-75
2024/05/02 02:35:38;;;;;;;8.23;3.92;;;;;;;11.30;50.71;100409.56;5288673;26;20448;-75
2024/05/02 02:38:05;;;;;;;12.82;3.47;;;;;;;11.25;50.87;100412.41;5287779;26;20053;-75
2024/05/02 02:40:31;;;;;;;8.65;4.50;;;;;;;11.19;50.87;100407.47;5284736;26;20084;-75
2024/05/02 02:42:57;;;;;;;6.82;4.18;;;;;;;11.05;51.52;100397.72;5298926;26;20493;-75
2024/05/02 02:45:22;;;;;;;6.32;4.18;;;;;;;10.85;52.20;100406.53;5318153;26;20292;-75
2024/05/02 02:47:48;;;;;;;10.65;4.22;;;;;;;10.95;51.53;100404.31;5298265;26;20117;-75
2024/05/02 02:50:13;;;;;;;8.25;4.82;;;;;;;10.92;51.81;100397.47;5281196;26;20009;-75
2024/05/02 02:52:39;;;;;;;12.52;4.07;;;;;;;10.83;52.10;100403.13;5269773;26;20127;-74
2024/05/02 02:55:05;;;;;;;8.15;4.75;;;;;;;10.87;52.18;100394.22;5341846;26;20001;-75
2024/05/02 02:57:31;;;;;;;7.55;4.40;;;;;;;10.83;52.13;100398.75;5266230;26;20540;-75
2024/05/02 02:59:56;;;;;;;15.60;4.75;;;;;;;10.84;52.01;100392.63;5342543;26;20025;-75
2024/05/02 03:02:22;;;;;;;13.77;4.70;;;;;;;10.84;52.37;100395.22;5288030;26;20005;-74
2024/05/02 03:04:47;;;;;;;8.98;4.82;;;;;;;10.78;52.37;100387.66;5284635;26;20011;-75
2024/05/02 03:07:12;;;;;;;8.02;4.85;;;;;;;10.86;52.15;100387.31;5287805;26;20254;-74
2024/05/02 03:09:38;;;;;;;13.35;5.28;;;;;;;10.83;52.30;100392.69;5292632;26;20374;-75
2024/05/02 03:12:03;;;;;;;9.45;4.70;;;;;;;10.80;52.40;100387.59;5261110;26;20476;-75
2024/05/02 03:14:29;;;;;;;10.32;4.45;;;;;;;10.64;52.44;100382.25;5288983;26;20739;-75
2024/05/02 03:16:54;;;;;;;7.28;5.18;;;;;;;10.69;52.62;100384.66;5299579;26;20004;-75
2024/05/02 03:19:20;;;;;;;16.33;5.63;;;;;;;10.67;52.77;100376.88;5338382;26;20020;-75
2024/05/02 03:21:45;;;;;;;11.75;5.55;;;;;;;10.71;52.91;100388.88;5295595;26;20725;-75
2024/05/02 03:24:11;;;;;;;9.40;5.05;;;;;;;10.67;52.70;100381.25;5304256;26;20454;-75
2024/05/02 03:26:37;;;;;;;10.23;4.35;;;;;;;10.66;52.47;100380.41;5292111;26;20005;-75
2024/05/02 03:29:03;;;;;;;10.95;5.05;;;;;;;10.63;52.86;100386.63;5292366;26;20049;-75
2024/05/02 03:31:28;;;;;;;6.45;4.90;;;;;;;10.61;52.85;100380.59;5294884;26;20013;-74
2024/05/02 03:33:54;;;;;;;11.57;5.78;;;;;;;10.47;52.83;100380.44;5333950;26;20024;-75
2024/05/02 03:36:20;;;;;;;6.85;5.13;;;;;;;10.58;52.76;100379.94;5291385;26;20009;-74
2024/05/02 03:38:47;;;;;;;6.35;4.57;;;;;;;10.67;52.53;100373.41;5275769;26;20024;-75
2024/05/02 03:41:12;;;;;;;9.15;5.13;;;;;;;10.53;52.73;100376.69;5301104;26;20016;-75
2024/05/02 03:43:41;;;;;;;13.23;5.35;;;;;;;10.48;53.08;100381.28;5287657;26;20070;-74
2024/05/02 03:46:10;;;;;;;10.43;4.63;;;;;;;10.49;52.83;100378.59;5301988;26;20008;-74
2024/05/02 03:48:35;;;;;;;8.27;4.88;;;;;;;10.40;53.21;100379.03;5319554;26;20025;-75
2024/05/02 03:51:01;;;;;;;6.57;4.63;;;;;;;10.52;52.60;100383.66;5348160;26;20356;-75
2024/05/02 03:53:27;;;;;;;13.25;5.75;;;;;;;10.44;52.92;100388.44;5265961;26;20529;-75
2024/05/02 03:55:52;;;;;;;10.30;5.22;;;;;;;10.44;52.93;100377.97;5289723;26;20017;-75
2024/05/02 03:58:18;;;;;;;7.43;5.13;;;;;;;10.59;52.22;100379.88;5293211;26;20001;-75
2024/05/02 04:00:43;;;;;;;12.23;5.13;;;;;;;10.61;52.42;100377.16;5299593;26;20652;-77
2024/05/02 04:03:08;;;;;;;9.07;5.43;;;;;;;10.58;52.48;100379.94;5293209;26;20009;-75
2024/05/02 04:05:34;;;;;;;8.80;5.13;;;;;;;10.62;52.25;100382.31;5321764;26;20129;-75
2024/05/02 04:08:00;;;;;;;9.23;5.65;;;;;;;10.67;52.41;100370.81;5304749;26;20017;-75
2024/05/02 04:10:25;;;;;;;10.25;5.13;;;;;;;10.50;52.74;100369.81;5338474;26;20048;-75
2024/05/02 04:12:50;;;;;;;10.82;4.95;;;;;;;10.67;52.10;100376.88;5293943;26;20031;-75
2024/05/02 04:15:16;;;;;;;8.18;5.20;;;;;;;10.68;51.92;100373.31;5291859;26;21015;-75
2024/05/02 04:17:42;;;;;;;9.38;4.68;;;;;;;10.76;52.12;100368.56;5342131;26;20605;-76
2024/05/02 04:20:10;;;;;;;8.23;4.95;;;;;;;10.77;51.85;100372.03;5289307;26;20009;-75
2024/05/02 04:22:36;;;;;;;10.75;5.13;;;;;;;10.73;52.23;100370.50;5257886;26;20013;-74
2024/05/02 04:25:02;;;;;;;6.45;5.00;;;;;;;10.74;52.08;100366.97;5277339;26;20005;-75
2024/05/02 04:27:27;;;;;;;12.57;4.60;;;;;;;10.73;52.23;100365.28;5289083;26;20506;-75
2024/05/02 04:29:53;;;;;;;15.23;5.43;;;;;;;10.79;51.69;100360.59;5295111;26;20014;-75
2024/05/02 04:32:18;;;;;;;8.30;4.80;;;;;;;10.95;51.57;100359.84;5332768;26;20562;-74
2024/05/02 04:34:43;;;;;;;12.73;4.97;;;;;;;10.93;51.61;100364.31;5289429;26;20053;-74
2024/05/02 04:37:09;;;;;;;11.82;4.50;;;;;;;10.91;51.47;100361.78;5299597;26;20010;-74
2024/05/02 04:39:34;;;;;;;13.93;6.90;;;;;;;10.89;51.65;100362.78;5268632;26;20037;-75
2024/05/02 04:42:00;;;;;;;10.57;5.07;;;;;;;11.15;51.00;100358.84;5293474;26;20045;-75
2024/05/02 04:44:25;;;;;;;9.15;5.00;;;;;;;11.31;50.62;100356.31;5274445;26;20364;-74
2024/05/02 04:46:51;;;;;;;8.15;4.68;;;;;;;11.24;50.58;100367.09;5265959;26;20010;-75
2024/05/02 04:49:16;;;;;;;12.45;4.30;;;;;;;11.36;50.29;100367.41;5295864;26;20009;-75
2024/05/02 04:51:42;;;;;;;8.65;5.18;;;;;;;11.39;50.44;100354.97;5313626;26;20060;-75
2024/05/02 04:54:07;;;;;;;10.73;4.32;;;;;;;11.44;50.48;100352.13;5302304;26;20046;-74
2024/05/02 04:56:33;;;;;;;9.05;4.45;;;;;;;11.65;49.53;100351.00;5323860;26;20009;-75
2024/05/02 04:58:58;;;;;;;10.07;4.47;;;;;;;11.50;49.92;100354.44;5291812;26;20465;-75
2024/05/02 05:01:24;;;;;;;5.07;4.40;;;;;;;11.69;49.29;100351.72;5292130;26;20008;-74
2024/05/02 05:03:50;;;;;;;7.80;4.85;;;;;;;11.86;49.09;100354.28;5325513;26;20005;-74
2024/05/02 05:06:16;;;;;;;11.73;4.70;;;;;;;11.81;49.34;100351.06;5274337;26;20005;-76
2024/05/02 05:08:41;;;;;;;9.27;4.70;;;;;;;11.88;48.90;100349.81;5326000;26;20013;-77
2024/05/02 05:11:07;;;;;;;9.77;4.53;;;;;;;12.28;47.98;100338.94;5280248;26;20405;-76
2024/05/02 05:13:32;;;;;;;20.23;5.43;;;;;;;12.36;47.73;100347.22;5249681;26;20025;-76
2024/05/02 05:15:58;;;;;;;6.72;4.22;;;;;;;12.37;47.69;100342.81;5294096;26;20006;-77
2024/05/02 05:18:27;;;;;;;12.13;5.30;;;;;;;12.52;47.31;100347.19;5301720;26;20013;-76
2024/05/02 05:20:53;;;;;;;7.53;4.80;;;;;;;12.33;48.05;100336.88;5311376;26;20008;-76
2024/05/02 05:23:19;;;;;;;11.65;4.75;;;;;;;12.74;47.29;100339.00;5294604;26;20027;-77
2024/05/02 05:25:45;;;;;;;6.22;4.03;;;;;;;14.14;45.20;100335.78;5306152;26;20006;-76
2024/05/02 05:28:10;;;;;;;8.60;4.85;;;;;;;15.90;39.85;100335.47;5291227;26;20188;-76
2024/05/02 05:30:35;;;;;;;11.68;4.15;;;;;;;17.23;36.90;100332.75;5282390;26;20025;-74
2024/05/02 05:33:01;;;;;;;6.18;4.57;;;;;;;18.22;35.49;100333.81;5286412;26;20353;-74
2024/05/02 05:35:27;;;;;;;6.03;4.18;;;;;;;18.20;35.45;100343.69;5294854;26;20009;-74
2024/05/02 05:37:52;;;;;;;9.23;3.70;;;;;;;18.21;35.24;100337.44;5286991;26;20346;-75
2024/05/02 05:40:18;;;;;;;8.57;4.22;;;;;;;18.55;34.18;100337.34;5289612;26;20032;-75
2024/05/02 05:42:44;;;;;;;9.20;4.05;;;;;;;18.72;34.55;100334.13;5314823;26;20024;-75
2024/05/02 05:45:09;;;;;;;7.43;4.15;;;;;;;18.58;34.17;100334.44;5290696;26;20009;-75
2024/05/02 05:47:35;;;;;;;9.38;3.60;;;;;;;19.12;33.67;100336.09;5284860;26;20013;-74
2024/05/02 05:50:01;;;;;;;10.52;4.47;;;;;;;19.40;32.95;100328.44;5289608;26;20033;-74
2024/05/02 05:52:27;;;;;;;6.60;3.88;;;;;;;19.57;32.33;100335.81;5261274;26;20012;-74
2024/05/02 05:54:52;;;;;;;12.73;4.43;;;;;;;19.98;32.00;100331.31;5256969;26;20045;-75
2024/05/02 05:57:18;;;;;;;7.85;4.13;;;;;;;20.39;31.49;100334.75;5338848;26;20339;-75
2024/05/02 05:59:43;;;;;;;8.85;4.28;;;;;;;20.38;31.17;100333.09;5301094;26;20041;-75
2024/05/02 06:02:09;;;;;;;8.68;3.88;;;;;;;19.39;32.92;100337.34;5345813;26;20028;-76
2024/05/02 06:04:34;;;;;;;6.43;3.80;;;;;;;19.47;32.91;100329.59;5285012;26;20024;-75
2024/05/02 06:07:00;;;;;;;13.55;4.20;;;;;;;20.30;31.74;100328.47;5285610;26;20010;-75
2024/05/02 06:09:25;;;;;;;9.13;4.45;;;;;;;20.65;31.23;100331.56;5262234;26;20531;-75
2024/05/02 06:11:51;;;;;;;8.02;4.30;;;;;;;21.38;30.01;100328.34;5260508;26;20831;-75
2024/05/02 06:14:16;;;;;;;9.80;3.83;;;;;;;21.54;28.92;100312.69;5288856;26;20635;-75
2024/05/02 06:16:43;;;;;;;5.03;3.50;;;;;;;21.42;29.45;100321.78;5273724;26;20045;-77
2024/05/02 06:19:08;;;;;;;5.63;3.75;;;;;;;22.47;28.74;100329.34;5288413;26;20006;-76
2024/05/02 06:21:34;;;;;;;7.78;3.92;;;;;;;22.20;28.38;100318.75;5287557;26;20013;-75
2024/05/02 06:24:00;;;;;;;7.55;3.40;;;;;;;21.80;29.02;100309.31;5301533;26;20008;-76
2024/05/02 06:26:25;;;;;;;6.03;3.33;;;;;;;21.49;29.18;100314.91;5263273;26;20752;-76
2024/05/02 06:28:52;;;;;;;5.90;3.38;;;;;;;21.24;29.93;100321.69;5289156;26;20013;-76
2024/05/02 06:31:17;;;;;;;6.82;3.42;;;;;;;21.04;29.73;100316.47;5271525;26;20018;-75
2024/05/02 06:33:43;;;;;;;7.45;4.00;;;;;;;21.99;28.69;100317.19;5292809;26;20005;-76
2024/05/02 06:36:08;;;;;;;17.83;5.32;;;;;;;22.30;28.65;100314.22;5291351;26;20009;-75
2024/05/02 06:38:34;;;;;;;12.60;4.50;;;;;;;22.84;27.61;100317.69;5313532;26;20016;-75
2024/05/02 06:41:00;;;;;;;7.97;3.50;;;;;;;22.27;28.30;100314.50;5279642;26;20342;-76
2024/05/02 06:43:29;;;;;;;7.40;3.80;;;;;;;22.08;28.35;100305.66;5287560;26;20018;-75
2024/05/02 06:45:55;;;;;;;6.18;3.42;;;;;;;22.02;28.65;100302.75;5303826;26;20010;-75
2024/05/02 06:48:21;;;;;;;7.50;3.92;;;;;;;22.05;28.73;100311.28;5269203;26;20553;-76
2024/05/02 06:50:46;;;;;;;5.18;3.42;;;;;;;22.89;28.00;100307.38;5290350;26;20019;-75
2024/05/02 06:53:12;;;;;;;10.13;4.18;;;;;;;22.44;28.52;100305.69;5344345;26;20090;-75
2024/05/02 06:55:38;;;;;;;6.53;3.50;;;;;;;23.51;26.82;100291.28;5283451;26;21920;-76
2024/05/02 06:58:03;;;;;;;5.28;3.78;;;;;;;23.70;26.83;100284.00;5302689;26;20028;-76
2024/05/02 07:00:29;;;;;;;5.72;4.03;;;;;;;23.00;27.63;100280.47;5342509;26;20013;-77
2024/05/02 07:02:54;;;;;;;6.85;3.60;;;;;;;23.06;27.62;100280.88;5346794;26;20028;-77
2024/05/02 07:05:20;;;;;;;64.00;14.25;;;;;;;22.67;27.90;100289.22;5291506;26;20239;-76
2024/05/02 07:07:46;;;;;;;8.00;3.95;;;;;;;22.61;28.09;100279.19;5282592;26;20020;-75
2024/05/02 07:10:11;;;;;;;8.15;3.70;;;;;;;22.40;28.37;100277.69;5305299;26;20010;-77
2024/05/02 07:12:37;;;;;;;8.05;3.20;;;;;;;23.47;27.52;100270.41;5279851;26;20010;-76
2024/05/02 07:15:03;;;;;;;7.32;3.28;;;;;;;23.91;26.21;100257.75;5299556;26;20107;-76
2024/05/02 07:17:29;;;;;;;8.73;3.83;;;;;;;24.01;26.22;100270.91;5286113;26;20028;-75
2024/05/02 07:19:55;;;;;;;15.77;6.15;;;;;;;23.60;26.94;100265.47;5297982;26;20005;-76
2024/05/02 07:22:21;;;;;;;13.07;4.78;;;;;;;24.07;26.19;100269.44;5292421;26;20017;-76
2024/05/02 07:24:46;;;;;;;4.75;3.63;;;;;;;23.60;26.55;100260.13;5271662;26;20028;-76
2024/05/02 07:27:12;;;;;;;6.88;4.00;;;;;;;23.73;26.85;100265.84;5302403;26;20017;-75
2024/05/02 07:29:38;;;;;;;8.05;3.50;;;;;;;24.47;25.70;100252.63;5289101;26;20083;-76
2024/05/02 07:32:04;;;;;;;20.70;3.35;;;;;;;24.20;26.14;100251.94;5303225;26;20008;-76
2024/05/02 07:34:29;;;;;;;5.47;3.00;;;;;;;24.17;26.43;100240.78;5287337;26;20018;-75
2024/05/02 07:36:55;;;;;;;6.25;3.00;;;;;;;24.19;25.91;100228.91;5295219;26;20109;-75
2024/05/02 07:39:21;;;;;;;3.58;2.38;;;;;;;23.68;26.48;100238.81;5295742;26;20476;-76
2024/05/02 07:41:47;;;;;;;10.38;4.10;;;;;;;24.00;26.66;100242.56;5286340;26;20195;-74
2024/05/02 07:44:13;;;;;;;5.68;3.92;;;;;;;24.81;25.62;100238.22;5291570;26;20009;-75
2024/05/02 07:46:39;;;;;;;8.23;3.58;;;;;;;24.98;25.25;100226.53;5313592;26;20558;-75
2024/05/02 07:49:05;;;;;;;8.10;3.22;;;;;;;25.03;25.16;100232.16;5301180;26;20045;-76
2024/05/02 07:51:31;;;;;;;5.90;3.33;;;;;;;24.48;26.22;100227.59;5292886;26;20020;-75
2024/05/02 07:53:57;;;;;;;3.30;3.00;;;;;;;23.52;27.20;100228.09;5279211;26;20108;-75
2024/05/02 07:56:22;;;;;;;11.35;3.35;;;;;;;23.89;26.72;100227.72;5295606;26;20013;-75
2024/05/02 07:58:48;;;;;;;3.47;3.17;;;;;;;24.04;27.04;100233.25;5288537;26;20021;-76
2024/05/02 08:01:17;;;;;;;6.75;3.22;;;;;;;24.50;25.95;100212.22;5321650;26;20072;-75
2024/05/02 08:03:45;;;;;;;4.53;2.72;;;;;;;24.38;25.74;100216.22;5277011;26;20027;-76
2024/05/02 08:06:10;;;;;;;4.20;2.80;;;;;;;24.38;26.41;100224.22;5281228;26;20017;-75
2024/05/02 08:08:36;;;;;;;7.75;3.42;;;;;;;25.45;25.09;100224.81;5321386;26;20008;-75
2024/05/02 08:11:02;;;;;;;9.15;3.97;;;;;;;25.11;25.49;100227.78;5289610;26;20021;-76
2024/05/02 08:13:28;;;;;;;6.50;3.38;;;;;;;25.25;25.28;100219.91;5274373;26;20001;-76
2024/05/02 08:15:53;;;;;;;10.38;3.28;;;;;;;25.30;25.38;100222.03;5287486;26;20010;-77
2024/05/02 08:18:19;;;;;;;12.55;4.35;;;;;;;24.77;26.16;100223.53;5273748;26;20105;-76
2024/05/02 08:20:45;;;;;;;5.90;3.35;;;;;;;24.96;26.09;100230.34;5289791;26;20010;-76
2024/05/02 08:23:10;;;;;;;7.72;3.20;;;;;;;25.05;25.49;100224.81;5337522;26;20045;-75
2024/05/02 08:25:36;;;;;;;6.07;3.60;;;;;;;25.02;25.75;100219.81;5281138;26;20028;-75
2024/05/02 08:28:03;;;;;;;8.57;3.83;;;;;;;25.08;25.65;100220.13;5289027;26;20093;-76
2024/05/02 08:30:30;;;;;;;9.57;3.80;;;;;;;24.82;25.49;100214.00;5295320;26;20004;-75
2024/05/02 08:32:55;;;;;;;7.95;3.58;;;;;;;25.59;25.15;100209.91;5266720;26;20002;-75
2024/05/02 08:35:21;;;;;;;8.30;4.97;;;;;;;25.47;25.92;100212.13;5296784;26;20023;-75
2024/05/02 08:37:46;;;;;;;11.25;3.60;;;;;;;25.82;25.16;100205.41;5279525;26;20024;-74
2024/05/02 08:40:12;;;;;;;6.45;2.97;;;;;;;26.32;25.16;100213.06;5342958;26;20019;-75
2024/05/02 08:42:41;;;;;;;39.10;8.52;;;;;;;26.31;24.84;100211.41;5286456;26;20005;-75
2024/05/02 08:45:09;;;;;;;6.47;3.33;;;;;;;26.33;24.35;100212.88;5283114;26;20429;-75
2024/05/02 08:47:37;;;;;;;13.45;3.97;;;;;;;25.86;25.14;100216.56;5307338;26;20075;-75
2024/05/02 08:50:04;;;;;;;16.10;4.50;;;;;;;24.81;26.43;100211.50;5293458;26;20028;-76
2024/05/02 08:52:34;;;;;;;9.82;4.10;;;;;;;24.85;27.45;100210.97;5248386;26;20009;-74
2024/05/02 08:54:59;;;;;;;13.38;5.15;;;;;;;24.56;25.99;100198.19;5320795;26;21176;-75
2024/05/02 08:57:25;;;;;;;12.93;3.60;;;;;;;23.90;27.00;100192.03;5292586;26;20001;-75
2024/05/02 08:59:53;;;;;;;4.75;3.47;;;;;;;24.11;27.97;100199.53;5290943;26;20507;-75
2024/05/02 09:02:22;;;;;;;3.60;3.05;;;;;;;23.95;27.58;100210.22;5284492;26;20086;-75
2024/05/02 09:04:49;;;;;;;8.27;3.28;;;;;;;24.46;27.33;100202.91;5286684;26;20884;-75
2024/05/02 09:07:15;;;;;;;10.07;3.67;;;;;;;24.00;28.00;100197.22;5283717;26;20013;-75
2024/05/02 09:09:40;;;;;;;4.50;3.85;;;;;;;22.89;28.42;100210.63;5284118;26;20818;-76
2024/05/02 09:12:06;;;;;;;9.02;3.58;;;;;;;21.99;30.60;100210.75;5332170;26;20020;-76
2024/05/02 09:14:33;;;;;;;6.00;3.88;;;;;;;21.90;30.70;100211.69;5290065;26;20008;-74
2024/05/02 09:16:59;;;;;;;9.52;4.20;;;;;;;22.34;30.16;100204.59;5277784;26;20589;-75
2024/05/02 09:19:25;;;;;;;7.40;3.63;;;;;;;21.89;30.66;100207.31;5285659;26;20153;-75
2024/05/02 09:21:52;;;;;;;6.95;3.78;;;;;;;20.83;32.57;100205.03;5328484;26;20527;-74
2024/05/02 09:24:18;;;;;;;3.83;3.17;;;;;;;21.22;31.92;100201.41;5281330;26;20009;-75
2024/05/02 09:26:44;;;;;;;6.30;3.50;;;;;;;21.22;32.28;100204.06;5282498;26;20009;-75
2024/05/02 09:29:11;;;;;;;8.25;3.05;;;;;;;22.00;31.33;100207.09;5277606;26;20006;-74
2024/05/02 09:31:38;;;;;;;4.82;3.28;;;;;;;22.15;30.90;100210.09;5335629;26;20519;-75
2024/05/02 09:34:05;;;;;;;14.50;6.68;;;;;;;21.38;31.93;100201.63;5329414;26;20025;-75
2024/05/02 09:36:32;;;;;;;12.13;3.88;;;;;;;21.38;32.32;100187.47;5284691;26;20060;-75
2024/05/02 09:39:05;;;;;;;5.47;3.47;;;;;;;21.50;32.78;100204.94;5274685;26;20040;-74
2024/05/02 09:41:32;;;;;;;6.25;3.40;;;;;;;21.20;32.31;100196.28;5279535;26;20013;-74
2024/05/02 09:44:08;;;;;;;9.98;4.10;;;;;;;21.14;32.40;100189.72;5269467;26;20567;-75
2024/05/02 09:46:34;;;;;;;10.27;3.45;;;;;;;21.87;32.91;100190.69;5287030;26;20072;-75
2024/05/02 09:49:01;;;;;;;7.28;4.15;;;;;;;21.67;32.22;100180.22;5282012;26;20352;-76
2024/05/02 09:51:30;;;;;;;5.70;3.47;;;;;;;21.96;32.47;100189.78;5287051;26;20028;-75
2024/05/02 09:53:56;;;;;;;7.18;3.65;;;;;;;22.23;31.29;100183.56;5281440;26;20024;-74
2024/05/02 09:56:25;;;;;;;13.18;4.05;;;;;;;22.22;31.65;100181.03;5278189;26;20025;-75
2024/05/02 09:58:52;;;;;;;3.67;3.08;;;;;;;23.33;31.29;100182.03;5302922;26;20021;-75
2024/05/02 10:01:18;;;;;;;4.10;3.67;;;;;;;23.25;31.04;100179.31;5340946;26;20004;-75
2024/05/02 10:03:45;;;;;;;9.77;3.15;;;;;;;23.53;29.43;100179.09;5268081;26;20674;-76
2024/05/02 10:06:11;;;;;;;23.35;4.95;;;;;;;23.19;30.51;100178.13;5277255;26;20104;-76
2024/05/02 10:08:39;;;;;;;66.07;8.80;;;;;;;22.94;30.34;100169.22;5283577;26;20020;-75
2024/05/02 10:11:15;;;;;;;7.43;3.17;;;;;;;22.88;30.97;100169.84;5261797;26;20009;-76
2024/05/02 10:13:56;;;;;;;4.25;3.22;;;;;;;23.39;30.21;100157.41;5280544;26;20009;-75
2024/05/02 10:16:25;;;;;;;4.80;3.63;;;;;;;23.12;30.64;100162.94;5317486;26;20127;-76
2024/05/02 10:18:56;;;;;;;9.27;3.70;;;;;;;23.25;30.50;100165.97;5256020;26;21076;-76
2024/05/02 10:21:26;;;;;;;14.80;4.65;;;;;;;23.29;30.40;100161.19;5279330;26;20868;-76
2024/05/02 10:23:52;;;;;;;7.47;3.45;;;;;;;23.31;30.20;100156.53;5260180;26;20075;-76
2024/05/02 10:26:48;;;;;;;6.32;3.55;;;;;;;23.49;30.61;100151.91;5279472;26;20723;-74
2024/05/02 10:29:15;;;;;;;4.75;2.28;;;;;;;24.05;29.90;100141.47;5277307;26;20484;-74
2024/05/02 10:31:41;;;;;;;4.60;3.10;;;;;;;23.77;29.14;100144.47;5310222;26;20002;-75
2024/05/02 10:34:07;;;;;;;11.05;3.63;;;;;;;23.56;30.10;100136.09;5293041;26;20019;-75
2024/05/02 10:36:32;;;;;;;5.20;3.00;;;;;;;23.65;29.48;100137.75;5283837;26;20023;-76
2024/05/02 10:38:58;;;;;;;6.30;3.13;;;;;;;24.11;29.47;100132.81;5281903;26;20013;-74
2024/05/02 10:41:25;;;;;;;8.93;3.15;;;;;;;24.22;28.64;100131.63;5311697;26;20083;-74
2024/05/02 10:43:52;;;;;;;7.50;3.47;;;;;;;24.13;29.24;100133.47;5289616;26;20006;-76
2024/05/02 10:46:18;;;;;;;3.90;2.67;;;;;;;24.37;30.03;100134.41;5285602;26;20088;-76
2024/05/02 10:48:45;;;;;;;6.40;2.50;;;;;;;24.22;28.79;100127.13;5289154;26;20079;-74
2024/05/02 10:51:11;;;;;;;7.65;3.17;;;;;;;23.87;29.91;100125.63;5282252;26;22659;-76
2024/05/02 10:53:39;;;;;;;3.90;3.53;;;;;;;24.49;29.87;100121.59;5283226;26;20021;-76
2024/05/02 10:56:05;;;;;;;3.50;3.17;;;;;;;24.61;29.03;100126.38;5315147;26;20028;-75
2024/05/02 10:58:31;;;;;;;8.13;3.47;;;;;;;23.75;29.59;100125.13;5296788;26;20444;-75
2024/05/02 11:00:57;;;;;;;7.70;3.03;;;;;;;24.04;30.18;100115.81;5283118;26;21160;-76
2024/05/02 11:03:23;;;;;;;5.20;3.20;;;;;;;24.19;30.23;100108.78;5284916;26;20050;-76
2024/05/02 11:05:50;;;;;;;11.10;3.13;;;;;;;24.42;29.62;100111.59;5285361;26;20006;-76
2024/05/02 11:08:23;;;;;;;4.75;2.83;;;;;;;24.55;28.90;100113.72;5287022;26;20001;-76
2024/05/02 11:10:53;;;;;;;4.90;3.10;;;;;;;24.44;28.80;100114.09;5266655;26;21063;-75
2024/05/02 11:13:20;;;;;;;4.95;2.03;;;;;;;23.87;28.52;100112.28;5284842;26;20019;-75
2024/05/02 11:15:46;;;;;;;5.40;2.00;;;;;;;23.96;29.00;100108.63;5288910;26;20021;-75
2024/05/02 11:18:16;;;;;;;4.25;2.67;;;;;;;24.42;29.27;100100.09;5308597;26;20491;-75